createdAt,value
2023-07-14T00:04:29.655Z,1017.5
2023-07-14T00:09:30.375Z,1017.5
2023-07-14T00:14:29.485Z,1017.4
2023-07-14T00:19:29.725Z,1017.3
2023-07-14T00:24:29.106Z,1017.3
2023-07-14T00:29:29.070Z,1017.3
2023-07-14T00:34:29.472Z,1017.3
2023-07-14T00:39:30.047Z,1017.3
2023-07-14T00:44:28.880Z,1017.2
2023-07-14T00:49:32.444Z,1017.2
2023-07-14T00:54:28.860Z,1017.2
2023-07-14T00:59:30.981Z,1017.2
2023-07-14T01:04:29.129Z,1017.2
2023-07-14T01:09:29.016Z,1017.1
2023-07-14T01:16:49.917Z,1017
2023-07-14T01:19:31.657Z,1016.9
2023-07-14T01:24:28.881Z,1017
2023-07-14T01:29:29.222Z,1017
2023-07-14T01:34:29.224Z,1017
2023-07-14T01:39:28.885Z,1017
2023-07-14T01:44:28.792Z,1016.9
2023-07-14T01:49:29.127Z,1016.9
2023-07-14T01:54:28.866Z,1016.9
2023-07-14T01:59:28.941Z,1016.8
2023-07-14T02:04:28.834Z,1016.8
2023-07-14T02:09:28.793Z,1016.8
2023-07-14T02:14:28.921Z,1016.8
2023-07-14T02:19:29.003Z,1016.8
2023-07-14T02:24:28.828Z,1016.8
2023-07-14T02:29:29.718Z,1016.7
2023-07-14T02:34:32.054Z,1016.7
2023-07-14T02:39:31.414Z,1016.6
2023-07-14T02:44:28.873Z,1016.7
2023-07-14T02:49:28.793Z,1016.6
2023-07-14T02:54:29.004Z,1016.6
2023-07-14T02:59:28.738Z,1016.6
2023-07-14T03:04:29.067Z,1016.6
2023-07-14T03:09:29.112Z,1016.6
2023-07-14T03:14:28.773Z,1016.7
2023-07-14T03:19:29.316Z,1016.6
2023-07-14T03:24:29.133Z,1016.6
2023-07-14T03:29:28.789Z,1016.5
2023-07-14T03:34:28.897Z,1016.5
2023-07-14T03:39:30.115Z,1016.5
2023-07-14T03:44:29.309Z,1016.5
2023-07-14T03:49:28.773Z,1016.5
2023-07-14T03:54:29.009Z,1016.4
2023-07-14T03:59:28.790Z,1016.5
2023-07-14T04:04:29.322Z,1016.4
2023-07-14T04:09:28.979Z,1016.5
2023-07-14T04:14:29.176Z,1016.4
2023-07-14T04:19:28.911Z,1016.4
2023-07-14T04:24:29.093Z,1016.3
2023-07-14T04:29:28.778Z,1016.4
2023-07-14T04:34:29.348Z,1016.4
2023-07-14T04:39:29.082Z,1016.4
2023-07-14T04:44:29.577Z,1016.3
2023-07-14T04:49:28.707Z,1016.3
2023-07-14T04:54:28.878Z,1016.3
2023-07-14T04:59:28.745Z,1016.3
2023-07-14T05:04:28.814Z,1016.2
2023-07-14T05:09:28.801Z,1016.2
2023-07-14T05:14:29.086Z,1016.2
2023-07-14T05:19:28.781Z,1016.2
2023-07-14T05:24:28.985Z,1016.2
2023-07-14T05:29:28.803Z,1016.1
2023-07-14T05:34:28.677Z,1016.2
2023-07-14T05:39:29.504Z,1016.1
2023-07-14T05:44:28.923Z,1016.1
2023-07-14T05:49:29.428Z,1016.1
2023-07-14T05:54:28.866Z,1016.1
2023-07-14T05:59:29.225Z,1016
2023-07-14T06:04:28.714Z,1016
2023-07-14T06:09:32.341Z,1016.1
2023-07-14T06:14:28.769Z,1016
2023-07-14T06:19:31.107Z,1016
2023-07-14T06:24:28.641Z,1015.9
2023-07-14T06:29:28.872Z,1016
2023-07-14T06:34:28.957Z,1016
2023-07-14T06:39:29.839Z,1016
2023-07-14T06:44:28.692Z,1015.9
2023-07-14T06:49:29.599Z,1015.9
2023-07-14T06:54:29.087Z,1015.9
2023-07-14T06:59:29.233Z,1015.8
2023-07-14T07:04:28.646Z,1015.8
2023-07-14T07:09:29.049Z,1015.8
2023-07-14T07:14:28.684Z,1015.7
2023-07-14T07:19:31.404Z,1015.7
2023-07-14T07:24:28.704Z,1015.7
2023-07-14T07:29:30.461Z,1015.6
2023-07-14T07:34:28.909Z,1015.6
2023-07-14T07:39:29.385Z,1015.5
2023-07-14T07:44:31.628Z,1015.5
2023-07-14T07:49:29.070Z,1015.4
2023-07-14T07:54:29.017Z,1015.5
2023-07-14T07:59:28.490Z,1015.4
2023-07-14T08:04:29.061Z,1015.5
2023-07-14T08:09:29.029Z,1015.4
2023-07-14T08:14:28.781Z,1015.4
2023-07-14T08:19:28.909Z,1015.4
2023-07-14T08:24:28.731Z,1015.4
2023-07-14T08:29:28.709Z,1015.4
2023-07-14T08:34:29.015Z,1015.4
2023-07-14T08:39:28.942Z,1015.4
2023-07-14T08:44:28.485Z,1015.4
2023-07-14T08:49:31.146Z,1015.5
2023-07-14T08:54:28.703Z,1015.5
2023-07-14T08:59:28.518Z,1015.4
2023-07-14T09:04:31.822Z,1015.5
2023-07-14T09:09:30.455Z,1015.4
2023-07-14T09:14:35.454Z,1015.4
2023-07-14T09:19:35.041Z,1015.4
2023-07-14T09:24:33.597Z,1015.3
2023-07-14T09:29:32.271Z,1015.3
2023-07-14T09:34:30.823Z,1015.1
2023-07-14T09:39:31.465Z,1015.2
2023-07-14T09:44:28.702Z,1015.1
2023-07-14T09:49:31.516Z,1015.2
2023-07-14T09:54:28.709Z,1015.1
2023-07-14T09:59:28.580Z,1015.1
2023-07-14T10:04:29.778Z,1015
2023-07-14T10:09:28.583Z,1015
2023-07-14T10:14:34.724Z,1014.9
2023-07-14T10:19:33.429Z,1014.7
2023-07-14T10:24:29.261Z,1014.8
2023-07-14T10:29:46.467Z,1014.8
2023-07-14T10:34:41.901Z,1014.7
2023-07-14T10:39:32.015Z,1014.7
2023-07-14T10:44:32.726Z,1014.6
2023-07-14T10:49:31.779Z,1014.5
2023-07-14T10:54:37.801Z,1014.6
2023-07-14T10:59:28.505Z,1014.7
2023-07-14T11:04:28.682Z,1014.6
2023-07-14T11:09:28.346Z,1014.5
2023-07-14T11:14:30.966Z,1014.4
2023-07-14T11:19:41.189Z,1013.8
2023-07-14T11:24:28.342Z,1014.3
2023-07-14T11:29:34.854Z,1014.2
2023-07-14T11:34:28.593Z,1014.2
2023-07-14T11:39:39.006Z,1014
2023-07-14T11:44:28.896Z,1013.9
2023-07-14T11:49:28.719Z,1013.7
2023-07-14T11:54:40.091Z,1013.8
2023-07-14T11:59:31.091Z,1013.7
2023-07-14T12:04:30.196Z,1013.6
2023-07-14T12:09:31.425Z,1013.6
2023-07-14T12:14:28.442Z,1013.5
2023-07-14T12:19:28.491Z,1013.6
2023-07-14T12:24:30.833Z,1013.6
2023-07-14T12:29:28.854Z,1013.5
2023-07-14T12:34:28.552Z,1013.4
2023-07-14T12:39:28.409Z,1013.3
2023-07-14T12:44:28.365Z,1013.2
2023-07-14T12:49:28.632Z,1013
2023-07-14T12:54:28.843Z,1012.8
2023-07-14T12:59:29.552Z,1012.7
2023-07-14T13:04:28.282Z,1012.7
2023-07-14T13:09:28.430Z,1012.7
2023-07-14T13:14:31.905Z,1012.6
2023-07-14T13:19:32.041Z,1012.5
2023-07-14T13:24:28.468Z,1012.5
2023-07-14T13:29:28.337Z,1012.4
2023-07-14T13:34:30.012Z,1012.4
2023-07-14T13:39:29.620Z,1012.3
2023-07-14T13:44:29.916Z,1012.3
2023-07-14T13:49:28.933Z,1012.2
2023-07-14T13:54:38.137Z,1012.1
2023-07-14T13:59:29.080Z,1012.1
2023-07-14T14:04:28.418Z,1012
2023-07-14T14:09:28.308Z,1011.9
2023-07-14T14:14:28.524Z,1011.8
2023-07-14T14:19:28.157Z,1011.7
2023-07-14T14:24:28.275Z,1011.5
2023-07-14T14:29:28.562Z,1011.3
2023-07-14T14:34:28.315Z,1011.2
2023-07-14T14:39:28.755Z,1011.1
2023-07-14T14:44:29.193Z,1010.9
2023-07-14T14:49:28.488Z,1010.8
2023-07-14T14:54:28.567Z,1010.7
2023-07-14T14:59:28.442Z,1010.6
2023-07-14T15:04:28.749Z,1010.6
2023-07-14T15:09:28.390Z,1010.5
2023-07-14T15:14:28.215Z,1010.4
2023-07-14T15:19:28.427Z,1010.3
2023-07-14T15:24:28.427Z,1010.1
2023-07-14T15:29:28.128Z,1010.1
2023-07-14T15:34:28.752Z,1009.9
2023-07-14T15:39:28.828Z,1009.9
2023-07-14T15:44:28.744Z,1009.7
2023-07-14T15:49:29.474Z,1009.6
2023-07-14T15:54:28.233Z,1009.6
2023-07-14T15:59:28.644Z,1009.4
2023-07-14T16:04:28.230Z,1009.4
2023-07-14T16:09:28.363Z,1009.3
2023-07-14T16:14:28.138Z,1009.2
2023-07-14T16:19:28.754Z,1009
2023-07-14T16:24:28.303Z,1008.9
2023-07-14T16:29:28.761Z,1008.9
2023-07-14T16:34:28.178Z,1008.9
2023-07-14T16:39:28.535Z,1008.8
2023-07-14T16:44:28.161Z,1008.8
2023-07-14T16:49:28.329Z,1008.6
2023-07-14T16:54:31.416Z,1008.6
2023-07-14T16:59:29.946Z,1008.5
2023-07-14T17:04:28.884Z,1008.4
2023-07-14T17:09:28.055Z,1008.4
2023-07-14T17:14:28.269Z,1008.3
2023-07-14T17:19:28.335Z,1008.2
2023-07-14T17:24:28.157Z,1008.2
2023-07-14T17:29:29.783Z,1008.1
2023-07-14T17:34:28.685Z,1008
2023-07-14T17:39:46.476Z,1008
2023-07-14T17:44:28.593Z,1008
2023-07-14T17:49:29.117Z,1008
2023-07-14T17:54:29.242Z,1008
2023-07-14T17:59:28.470Z,1007.8
2023-07-14T18:04:28.301Z,1007.7
2023-07-14T18:09:28.731Z,1007.7
2023-07-14T18:14:28.275Z,1007.7
2023-07-14T18:19:28.288Z,1007.6
2023-07-14T18:24:42.748Z,1007.5
2023-07-14T18:29:28.365Z,1007.4
2023-07-14T18:34:28.552Z,1007.4
2023-07-14T18:39:28.330Z,1007.4
2023-07-14T18:44:28.263Z,1007.4
2023-07-14T18:49:28.383Z,1007.3
2023-07-14T18:54:30.105Z,1007.2
2023-07-14T18:59:28.587Z,1007
2023-07-14T19:04:28.460Z,1007
2023-07-14T19:09:28.444Z,1007
2023-07-14T19:14:28.661Z,1006.9
2023-07-14T19:19:28.069Z,1006.8
2023-07-14T19:24:28.261Z,1006.7
2023-07-14T19:29:27.917Z,1006.8
2023-07-14T19:34:28.002Z,1006.8
2023-07-14T19:39:28.686Z,1006.7
2023-07-14T19:44:28.524Z,1006.6
2023-07-14T19:49:28.435Z,1006.6
2023-07-14T19:54:28.424Z,1006.5
2023-07-14T19:59:27.938Z,1006.5
2023-07-14T20:04:28.700Z,1006.4
2023-07-14T20:09:28.323Z,1006.4
2023-07-14T20:14:30.885Z,1006.3
2023-07-14T20:19:28.046Z,1006.3
2023-07-14T20:24:28.060Z,1006.3
2023-07-14T20:29:28.077Z,1006.2
2023-07-14T20:34:28.632Z,1006.1
2023-07-14T20:39:28.180Z,1006.4
2023-07-14T20:44:27.956Z,1006.1
2023-07-14T20:49:27.925Z,1005.9
2023-07-14T20:54:28.463Z,1005.8
2023-07-14T20:59:28.196Z,1005.8
2023-07-14T21:04:28.292Z,1005.6
2023-07-14T21:09:28.196Z,1005.6
2023-07-14T21:14:28.396Z,1005.5
2023-07-14T21:19:28.558Z,1005.4
2023-07-14T21:24:28.064Z,1005.3
2023-07-14T21:29:28.385Z,1005.1
2023-07-14T21:34:28.120Z,1005.1
2023-07-14T21:39:28.023Z,1005
2023-07-14T21:44:28.194Z,1004.9
2023-07-14T21:49:28.518Z,1004.9
2023-07-14T21:54:28.413Z,1004.7
2023-07-14T21:59:28.062Z,1004.8
2023-07-14T22:04:28.392Z,1004.7
2023-07-14T22:09:28.870Z,1004.6
2023-07-14T22:14:28.184Z,1004.5
2023-07-14T22:19:28.379Z,1004.5
2023-07-14T22:24:28.316Z,1004.4
2023-07-14T22:29:28.375Z,1004.4
2023-07-14T22:34:28.095Z,1004.3
2023-07-14T22:39:28.589Z,1004.3
2023-07-14T22:44:28.049Z,1004.2
2023-07-14T22:49:28.719Z,1004.1
2023-07-14T22:54:28.005Z,1004
2023-07-14T22:59:28.146Z,1004
2023-07-14T23:04:28.400Z,1003.8
2023-07-14T23:09:28.539Z,1003.8
2023-07-14T23:14:28.408Z,1003.7
2023-07-14T23:19:28.181Z,1003.6
2023-07-14T23:24:28.475Z,1003.6
2023-07-14T23:29:28.046Z,1003.5
2023-07-14T23:34:27.944Z,1003.4
2023-07-14T23:39:28.909Z,1003.3
2023-07-14T23:44:27.973Z,1003.3
2023-07-14T23:49:28.396Z,1003.3
2023-07-14T23:54:28.416Z,1003.2
2023-07-14T23:59:27.926Z,1003.3
